Time;durP1;ratioP1;P1;durP2;ratioP2;P2;SDS_P1;SDS_P2;PMS_P1;PMS_P2;Temp;Humidity;BMP_temperature;BMP_pressure;BME280_temperature;BME280_humidity;BME280_pressure;Samples;Min_cycle;Max_cycle;Signal;HPM_P1;HPM_P2
2020/12/20 00:00:08;;;;;;;;;;;;;;;;;;5071873;28;20015;-63
2020/12/20 00:02:35;;;;;;;;;;;;;;;;;;5071472;28;19983;-65
2020/12/20 00:05:02;;;;;;;;;;;;;;;;;;5072598;28;20022;-61
2020/12/20 00:07:29;;;;;;;;;;;;;;;;;;5073383;28;19954;-61
2020/12/20 00:09:57;;;;;;;;;;;;;;;;;;5072148;28;19925;-62
2020/12/20 00:12:24;;;;;;;;;;;;;;;;;;5072564;28;20433;-62
2020/12/20 00:14:51;;;;;;;;;;;;;;;;;;5072057;28;20288;-61
2020/12/20 00:17:18;;;;;;;;;;;;;;;;;;5067825;28;20278;-62
2020/12/20 00:19:45;;;;;;;;;;;;;;;;;;5072486;28;20223;-61
2020/12/20 00:22:12;;;;;;;;;;;;;;;;;;5073118;28;20031;-67
2020/12/20 00:24:40;;;;;;;;;;;;;;;;;;5072832;28;19928;-66
2020/12/20 00:27:07;;;;;;;;;;;;;;;;;;5072157;28;20015;-64
2020/12/20 00:29:34;;;;;;;;;;;;;;;;;;5070181;28;20035;-62
2020/12/20 00:32:01;;;;;;;;;;;;;;;;;;5070563;28;20015;-61
2020/12/20 00:34:28;;;;;;;;;;;;;;;;;;5072792;28;20052;-61
2020/12/20 00:36:55;;;;;;;;;;;;;;;;;;5072142;28;20007;-61
2020/12/20 00:39:22;;;;;;;;;;;;;;;;;;5072069;28;22815;-61
2020/12/20 00:41:50;;;;;;;;;;;;;;;;;;5072435;28;19932;-61
2020/12/20 00:44:17;;;;;;;;;;;;;;;;;;5072144;28;20314;-63
2020/12/20 00:46:44;;;;;;;;;;;;;;;;;;5071578;28;19928;-63
2020/12/20 00:49:20;;;;;;;;;;;;;;;;;;5072022;28;20023;-62
2020/12/20 00:51:48;;;;;;;;;;;;;;;;;;5068939;28;19966;-63
2020/12/20 00:54:15;;;;;;;;;;;;;;;;;;5072570;28;20011;-67
2020/12/20 00:56:42;;;;;;;;;;;;;;;;;;5061855;28;19935;-67
2020/12/20 00:59:09;;;;;;;;;;;;;;;;;;5070971;28;20375;-61
2020/12/20 01:01:37;;;;;;;;;;;;;;;;;;5071405;28;19924;-61
2020/12/20 01:04:04;;;;;;;;;;;;;;;;;;5071681;28;20426;-62
2020/12/20 01:06:31;;;;;;;;;;;;;;;;;;5064191;28;19979;-64
2020/12/20 01:09:00;;;;;;;;;;;;;;;;;;5071646;28;19924;-61
2020/12/20 01:11:27;;;;;;;;;;;;;;;;;;5070989;28;19932;-62
2020/12/20 01:13:54;;;;;;;;;;;;;;;;;;5071463;28;20421;-64
2020/12/20 01:16:25;;;;;;;;;;;;;;;;;;5071692;28;19935;-62
2020/12/20 01:18:52;;;;;;;;;;;;;;;;;;5071143;28;19928;-61
2020/12/20 01:21:19;;;;;;;;;;;;;;;;;;5071285;28;20383;-65
2020/12/20 01:23:47;;;;;;;;;;;;;;;;;;5066353;28;20388;-62
2020/12/20 01:26:15;;;;;;;;;;;;;;;;;;5071365;28;19933;-65
2020/12/20 01:28:42;;;;;;;;;;;;;;;;;;5065354;28;20016;-61
2020/12/20 01:31:09;;;;;;;;;;;;;;;;;;5070832;28;20348;-64
2020/12/20 01:33:36;;;;;;;;;;;;;;;;;;5070363;28;19935;-65
2020/12/20 01:36:04;;;;;;;;;;;;;;;;;;5071305;28;19928;-62
2020/12/20 01:38:31;;;;;;;;;;;;;;;;;;5070983;28;20384;-65
2020/12/20 01:40:58;;;;;;;;;;;;;;;;;;5070985;28;19929;-61
2020/12/20 01:43:28;;;;;;;;;;;;;;;;;;5070341;28;20379;-61
2020/12/20 01:45:55;;;;;;;;;;;;;;;;;;5070662;28;19935;-61
2020/12/20 01:48:22;;;;;;;;;;;;;;;;;;5069767;28;19932;-61
2020/12/20 01:50:49;;;;;;;;;;;;;;;;;;5067625;28;20328;-67
2020/12/20 01:53:16;;;;;;;;;;;;;;;;;;5070819;28;20395;-61
2020/12/20 01:55:43;;;;;;;;;;;;;;;;;;5068304;28;19975;-67
2020/12/20 01:58:11;;;;;;;;;;;;;;;;;;5071305;28;20011;-64
2020/12/20 02:00:38;;;;;;;;;;;;;;;;;;5070381;28;19971;-63
2020/12/20 02:03:05;;;;;;;;;;;;;;;;;;5070408;28;19971;-73
2020/12/20 02:05:32;;;;;;;;;;;;;;;;;;5066140;28;20710;-66
2020/12/20 02:07:59;;;;;;;;;;;;;;;;;;5069800;28;20035;-61
2020/12/20 02:10:26;;;;;;;;;;;;;;;;;;5069961;28;20369;-62
2020/12/20 02:12:54;;;;;;;;;;;;;;;;;;5070028;28;19942;-66
2020/12/20 02:15:21;;;;;;;;;;;;;;;;;;5066423;28;20022;-61
2020/12/20 02:17:48;;;;;;;;;;;;;;;;;;5069047;28;19950;-61
2020/12/20 02:20:17;;;;;;;;;;;;;;;;;;5068886;28;20007;-61
2020/12/20 02:22:44;;;;;;;;;;;;;;;;;;5069483;28;19929;-67
2020/12/20 02:25:11;;;;;;;;;;;;;;;;;;5069554;28;19929;-61
2020/12/20 02:27:38;;;;;;;;;;;;;;;;;;5069693;28;19935;-61
2020/12/20 02:30:05;;;;;;;;;;;;;;;;;;5068072;28;19956;-61
2020/12/20 02:32:33;;;;;;;;;;;;;;;;;;5068507;28;20371;-64
2020/12/20 02:35:00;;;;;;;;;;;;;;;;;;5069734;28;20019;-64
2020/12/20 02:37:27;;;;;;;;;;;;;;;;;;5068561;28;19935;-66
2020/12/20 02:39:54;;;;;;;;;;;;;;;;;;5069424;28;19928;-61
2020/12/20 02:42:21;;;;;;;;;;;;;;;;;;5069242;28;19984;-64
2020/12/20 02:44:49;;;;;;;;;;;;;;;;;;5068585;28;20287;-61
2020/12/20 02:47:16;;;;;;;;;;;;;;;;;;5068828;28;20031;-61
2020/12/20 02:49:43;;;;;;;;;;;;;;;;;;5069683;28;19931;-63
2020/12/20 02:52:10;;;;;;;;;;;;;;;;;;5069129;28;19925;-65
2020/12/20 02:54:37;;;;;;;;;;;;;;;;;;5068837;28;19987;-62
2020/12/20 02:57:04;;;;;;;;;;;;;;;;;;5072318;28;20358;-67
2020/12/20 02:59:31;;;;;;;;;;;;;;;;;;5072095;28;20466;-65
2020/12/20 03:01:59;;;;;;;;;;;;;;;;;;5072917;28;20441;-63
2020/12/20 03:04:26;;;;;;;;;;;;;;;;;;5074774;28;19930;-61
2020/12/20 03:06:53;;;;;;;;;;;;;;;;;;5075133;28;20015;-67
2020/12/20 03:09:20;;;;;;;;;;;;;;;;;;5075045;28;20024;-61
2020/12/20 03:11:47;;;;;;;;;;;;;;;;;;5073913;28;19963;-61
2020/12/20 03:14:14;;;;;;;;;;;;;;;;;;5074147;28;19950;-65
2020/12/20 03:16:41;;;;;;;;;;;;;;;;;;5074369;28;20015;-63
2020/12/20 03:19:08;;;;;;;;;;;;;;;;;;5074472;28;20405;-61
2020/12/20 03:21:35;;;;;;;;;;;;;;;;;;5073469;28;20015;-67
2020/12/20 03:24:03;;;;;;;;;;;;;;;;;;5073474;28;20419;-61
2020/12/20 03:26:30;;;;;;;;;;;;;;;;;;5074286;28;19924;-63
2020/12/20 03:28:57;;;;;;;;;;;;;;;;;;5069348;28;19925;-63
2020/12/20 03:31:24;;;;;;;;;;;;;;;;;;5073319;28;19940;-61
2020/12/20 03:33:51;;;;;;;;;;;;;;;;;;5073066;28;19928;-62
2020/12/20 03:36:19;;;;;;;;;;;;;;;;;;5073850;28;19931;-61
2020/12/20 03:38:46;;;;;;;;;;;;;;;;;;5073820;28;19939;-64
2020/12/20 03:41:13;;;;;;;;;;;;;;;;;;5073210;28;19931;-67
2020/12/20 03:43:40;;;;;;;;;;;;;;;;;;5074065;28;19928;-61
2020/12/20 03:46:07;;;;;;;;;;;;;;;;;;5073355;28;19928;-61
2020/12/20 03:48:34;;;;;;;;;;;;;;;;;;5072857;28;20024;-63
2020/12/20 03:51:13;;;;;;;;;;;;;;;;;;5061443;28;20011;-66
2020/12/20 03:53:40;;;;;;;;;;;;;;;;;;5073653;28;19928;-61
2020/12/20 03:56:07;;;;;;;;;;;;;;;;;;5067286;28;20964;-63
2020/12/20 03:58:34;;;;;;;;;;;;;;;;;;5073516;28;20018;-62
2020/12/20 04:01:01;;;;;;;;;;;;;;;;;;5072151;28;20424;-61
2020/12/20 04:03:28;;;;;;;;;;;;;;;;;;5072712;28;19934;-64
2020/12/20 04:05:56;;;;;;;;;;;;;;;;;;5071746;28;20454;-61
2020/12/20 04:08:23;;;;;;;;;;;;;;;;;;5072897;28;20038;-61
2020/12/20 04:10:50;;;;;;;;;;;;;;;;;;5072490;28;20379;-62
2020/12/20 04:13:17;;;;;;;;;;;;;;;;;;5073784;28;20015;-61
2020/12/20 04:15:44;;;;;;;;;;;;;;;;;;5072063;28;19928;-67
2020/12/20 04:18:22;;;;;;;;;;;;;;;;;;1015168;28;10021979;-61
2020/12/20 04:20:50;;;;;;;;;;;;;;;;;;4722285;28;10000916;-62
2020/12/20 04:23:17;;;;;;;;;;;;;;;;;;5072888;28;20453;-61
2020/12/20 04:25:44;;;;;;;;;;;;;;;;;;5072253;28;20348;-65
2020/12/20 04:28:11;;;;;;;;;;;;;;;;;;5073380;28;20019;-62
2020/12/20 04:30:38;;;;;;;;;;;;;;;;;;5071925;28;19975;-61
2020/12/20 04:33:05;;;;;;;;;;;;;;;;;;5072134;28;19952;-61
2020/12/20 04:35:32;;;;;;;;;;;;;;;;;;5070483;28;20018;-62
2020/12/20 04:37:59;;;;;;;;;;;;;;;;;;5072163;28;20415;-61
2020/12/20 04:40:27;;;;;;;;;;;;;;;;;;5071752;28;19928;-61
2020/12/20 04:42:54;;;;;;;;;;;;;;;;;;5071815;28;20434;-62
2020/12/20 04:45:21;;;;;;;;;;;;;;;;;;5072703;28;20022;-61
2020/12/20 04:47:54;;;;;;;;;;;;;;;;;;5071590;28;19935;-61
2020/12/20 04:50:21;;;;;;;;;;;;;;;;;;5071280;28;20475;-61
2020/12/20 04:52:48;;;;;;;;;;;;;;;;;;5065914;28;20028;-61
2020/12/20 04:55:15;;;;;;;;;;;;;;;;;;5063292;28;20417;-61
2020/12/20 04:57:43;;;;;;;;;;;;;;;;;;5071868;28;19928;-62
2020/12/20 05:00:10;;;;;;;;;;;;;;;;;;5071786;28;19928;-62
2020/12/20 05:02:37;;;;;;;;;;;;;;;;;;5070871;28;19958;-62
2020/12/20 05:05:04;;;;;;;;;;;;;;;;;;5072390;28;20152;-61
2020/12/20 05:07:31;;;;;;;;;;;;;;;;;;5071837;28;19989;-61
2020/12/20 05:09:58;;;;;;;;;;;;;;;;;;5070770;28;19928;-61
2020/12/20 05:12:25;;;;;;;;;;;;;;;;;;5071878;28;20043;-61
2020/12/20 05:14:52;;;;;;;;;;;;;;;;;;5071777;28;19924;-61
2020/12/20 05:17:19;;;;;;;;;;;;;;;;;;5071398;28;20429;-64
2020/12/20 05:19:47;;;;;;;;;;;;;;;;;;5070980;28;19925;-61
2020/12/20 05:22:17;;;;;;;;;;;;;;;;;;5071176;28;19929;-68
2020/12/20 05:24:44;;;;;;;;;;;;;;;;;;5071625;28;19975;-65
2020/12/20 05:27:11;;;;;;;;;;;;;;;;;;5071655;28;19942;-61
2020/12/20 05:29:38;;;;;;;;;;;;;;;;;;5070264;28;20398;-61
2020/12/20 05:32:05;;;;;;;;;;;;;;;;;;5071187;28;20376;-64
2020/12/20 05:34:32;;;;;;;;;;;;;;;;;;5071611;28;19928;-61
2020/12/20 05:37:01;;;;;;;;;;;;;;;;;;5071363;28;19924;-67
2020/12/20 05:39:28;;;;;;;;;;;;;;;;;;5070619;28;19924;-61
2020/12/20 05:41:55;;;;;;;;;;;;;;;;;;5067872;28;20368;-61
2020/12/20 05:44:23;;;;;;;;;;;;;;;;;;5070033;28;20295;-61
2020/12/20 05:46:51;;;;;;;;;;;;;;;;;;5070788;28;19974;-61
2020/12/20 05:49:18;;;;;;;;;;;;;;;;;;5070896;28;20379;-61
2020/12/20 05:51:45;;;;;;;;;;;;;;;;;;5071005;28;19924;-67
2020/12/20 05:54:12;;;;;;;;;;;;;;;;;;5071362;28;19928;-63
2020/12/20 05:56:40;;;;;;;;;;;;;;;;;;5070962;28;19928;-61
2020/12/20 05:59:07;;;;;;;;;;;;;;;;;;5051188;28;19931;-64
2020/12/20 06:01:34;;;;;;;;;;;;;;;;;;5067857;28;19928;-63
2020/12/20 06:04:01;;;;;;;;;;;;;;;;;;5070065;28;20267;-62
2020/12/20 06:06:28;;;;;;;;;;;;;;;;;;5070463;28;19935;-65
2020/12/20 06:08:55;;;;;;;;;;;;;;;;;;5070690;28;19924;-61
2020/12/20 06:11:22;;;;;;;;;;;;;;;;;;5070732;28;20359;-64
2020/12/20 06:13:49;;;;;;;;;;;;;;;;;;5071012;28;20027;-61
2020/12/20 06:16:16;;;;;;;;;;;;;;;;;;5070528;28;20287;-62
2020/12/20 06:18:44;;;;;;;;;;;;;;;;;;5070562;28;19928;-65
2020/12/20 06:21:11;;;;;;;;;;;;;;;;;;5070469;28;20351;-62
2020/12/20 06:23:38;;;;;;;;;;;;;;;;;;5067434;28;19939;-67
2020/12/20 06:26:05;;;;;;;;;;;;;;;;;;5069568;28;19934;-62
2020/12/20 06:28:32;;;;;;;;;;;;;;;;;;5067373;28;19924;-61
2020/12/20 06:31:00;;;;;;;;;;;;;;;;;;5064658;28;20656;-61
2020/12/20 06:33:27;;;;;;;;;;;;;;;;;;5066000;28;19934;-61
2020/12/20 06:35:54;;;;;;;;;;;;;;;;;;5061181;28;20011;-61
2020/12/20 06:38:21;;;;;;;;;;;;;;;;;;5070929;28;19935;-62
2020/12/20 06:40:48;;;;;;;;;;;;;;;;;;5069330;28;20294;-61
2020/12/20 06:43:15;;;;;;;;;;;;;;;;;;5069538;28;19924;-62
2020/12/20 06:45:42;;;;;;;;;;;;;;;;;;5069925;28;19924;-61
2020/12/20 06:48:10;;;;;;;;;;;;;;;;;;5069351;28;20337;-61
2020/12/20 06:50:37;;;;;;;;;;;;;;;;;;5067226;28;19932;-61
2020/12/20 06:53:07;;;;;;;;;;;;;;;;;;5070198;28;19934;-61
2020/12/20 06:55:34;;;;;;;;;;;;;;;;;;5067804;28;19929;-62
2020/12/20 06:58:01;;;;;;;;;;;;;;;;;;5070863;28;20478;-61
2020/12/20 07:00:28;;;;;;;;;;;;;;;;;;5068509;28;19977;-63
2020/12/20 07:02:55;;;;;;;;;;;;;;;;;;5065428;28;20328;-63
2020/12/20 07:05:22;;;;;;;;;;;;;;;;;;5069987;28;19935;-64
2020/12/20 07:07:49;;;;;;;;;;;;;;;;;;5066372;28;19928;-63
2020/12/20 07:10:16;;;;;;;;;;;;;;;;;;5066286;28;19932;-62
2020/12/20 07:12:43;;;;;;;;;;;;;;;;;;5069460;28;19928;-68
2020/12/20 07:15:10;;;;;;;;;;;;;;;;;;5070324;28;20392;-61
2020/12/20 07:17:37;;;;;;;;;;;;;;;;;;5068347;28;20295;-61
2020/12/20 07:20:05;;;;;;;;;;;;;;;;;;5071091;28;20035;-61
2020/12/20 07:22:32;;;;;;;;;;;;;;;;;;5069369;28;20399;-69
2020/12/20 07:24:59;;;;;;;;;;;;;;;;;;5069131;28;19928;-62
2020/12/20 07:27:26;;;;;;;;;;;;;;;;;;5066675;28;20075;-61
2020/12/20 07:29:53;;;;;;;;;;;;;;;;;;5062590;28;20349;-64
2020/12/20 07:32:20;;;;;;;;;;;;;;;;;;5064157;28;19939;-67
2020/12/20 07:34:47;;;;;;;;;;;;;;;;;;5067855;28;19924;-67
2020/12/20 07:37:15;;;;;;;;;;;;;;;;;;5067147;28;20027;-70
2020/12/20 07:39:42;;;;;;;;;;;;;;;;;;5060086;28;20022;-69
2020/12/20 07:42:09;;;;;;;;;;;;;;;;;;5064645;28;20017;-63
2020/12/20 07:44:36;;;;;;;;;;;;;;;;;;5065205;28;19938;-70
2020/12/20 07:47:03;;;;;;;;;;;;;;;;;;5068413;28;19924;-62
2020/12/20 07:49:30;;;;;;;;;;;;;;;;;;5061427;28;20039;-65
2020/12/20 07:51:57;;;;;;;;;;;;;;;;;;5049183;28;20020;-61
2020/12/20 07:54:24;;;;;;;;;;;;;;;;;;5045095;28;19929;-64
2020/12/20 07:56:51;;;;;;;;;;;;;;;;;;5048709;28;19935;-61
2020/12/20 07:59:19;;;;;;;;;;;;;;;;;;5048004;28;19968;-66
2020/12/20 08:01:46;;;;;;;;;;;;;;;;;;5048709;28;20008;-70
2020/12/20 08:04:13;;;;;;;;;;;;;;;;;;5040395;28;19928;-67
2020/12/20 08:06:41;;;;;;;;;;;;;;;;;;5060217;28;19935;-62
2020/12/20 08:09:08;;;;;;;;;;;;;;;;;;5046991;28;19947;-64
2020/12/20 08:11:35;;;;;;;;;;;;;;;;;;5048948;28;19929;-63
2020/12/20 08:14:02;;;;;;;;;;;;;;;;;;5031803;28;19929;-62
2020/12/20 08:16:29;;;;;;;;;;;;;;;;;;5048953;28;19928;-64
2020/12/20 08:18:56;;;;;;;;;;;;;;;;;;5042612;28;19929;-62
2020/12/20 08:21:23;;;;;;;;;;;;;;;;;;5039387;28;19937;-64
2020/12/20 08:24:02;;;;;;;;;;;;;;;;;;5046306;28;20450;-62
2020/12/20 08:26:31;;;;;;;;;;;;;;;;;;5044736;28;19929;-63
2020/12/20 08:28:58;;;;;;;;;;;;;;;;;;5051918;28;19928;-63
2020/12/20 08:31:41;;;;;;;;;;;;;;;;;;5022037;28;20295;-70
2020/12/20 08:34:08;;;;;;;;;;;;;;;;;;5042970;28;19935;-65
2020/12/20 08:36:35;;;;;;;;;;;;;;;;;;5044556;28;19939;-65
2020/12/20 08:39:06;;;;;;;;;;;;;;;;;;5042497;28;20145;-63
2020/12/20 08:41:33;;;;;;;;;;;;;;;;;;5046546;28;19968;-64
2020/12/20 08:44:01;;;;;;;;;;;;;;;;;;5042448;28;20201;-62
2020/12/20 08:46:28;;;;;;;;;;;;;;;;;;5040093;28;19929;-65
2020/12/20 08:48:55;;;;;;;;;;;;;;;;;;5043387;28;19976;-62
2020/12/20 08:51:22;;;;;;;;;;;;;;;;;;5047779;28;19932;-65
2020/12/20 08:53:49;;;;;;;;;;;;;;;;;;5047529;28;19928;-61
2020/12/20 08:56:16;;;;;;;;;;;;;;;;;;5043300;28;19929;-61
2020/12/20 08:58:43;;;;;;;;;;;;;;;;;;5047090;28;19935;-69
2020/12/20 09:01:10;;;;;;;;;;;;;;;;;;5045837;28;19928;-64
2020/12/20 09:03:38;;;;;;;;;;;;;;;;;;5046846;28;19964;-65
2020/12/20 09:06:05;;;;;;;;;;;;;;;;;;5048177;28;20324;-63
2020/12/20 09:08:32;;;;;;;;;;;;;;;;;;5047225;28;19935;-62
2020/12/20 09:10:59;;;;;;;;;;;;;;;;;;5046931;28;19931;-72
2020/12/20 09:13:27;;;;;;;;;;;;;;;;;;5049961;28;19929;-64
2020/12/20 09:15:54;;;;;;;;;;;;;;;;;;5049909;28;20318;-69
2020/12/20 09:18:21;;;;;;;;;;;;;;;;;;5050207;28;19924;-63
2020/12/20 09:20:48;;;;;;;;;;;;;;;;;;5048502;28;19924;-64
2020/12/20 09:23:15;;;;;;;;;;;;;;;;;;5049390;28;20451;-64
2020/12/20 09:25:43;;;;;;;;;;;;;;;;;;5048714;28;19931;-63
2020/12/20 09:28:11;;;;;;;;;;;;;;;;;;5043088;28;19928;-61
2020/12/20 09:30:38;;;;;;;;;;;;;;;;;;5050104;28;19925;-62
2020/12/20 09:33:05;;;;;;;;;;;;;;;;;;5048676;28;19929;-61
2020/12/20 09:35:32;;;;;;;;;;;;;;;;;;5051177;28;19997;-64
2020/12/20 09:37:59;;;;;;;;;;;;;;;;;;5044700;28;20424;-61
2020/12/20 09:40:26;;;;;;;;;;;;;;;;;;5048050;28;20427;-62
2020/12/20 09:42:53;;;;;;;;;;;;;;;;;;5049305;28;19935;-63
2020/12/20 09:45:20;;;;;;;;;;;;;;;;;;5050706;28;19990;-67
2020/12/20 09:47:47;;;;;;;;;;;;;;;;;;5047022;28;19929;-61
2020/12/20 09:50:15;;;;;;;;;;;;;;;;;;5047109;28;20408;-65
2020/12/20 09:52:42;;;;;;;;;;;;;;;;;;5046889;28;19936;-62
2020/12/20 09:55:09;;;;;;;;;;;;;;;;;;5051903;28;19942;-61
2020/12/20 09:57:36;;;;;;;;;;;;;;;;;;5053663;28;19924;-61
2020/12/20 10:00:03;;;;;;;;;;;;;;;;;;5046002;28;20008;-61
2020/12/20 10:02:30;;;;;;;;;;;;;;;;;;5045212;28;20043;-64
2020/12/20 10:04:57;;;;;;;;;;;;;;;;;;5048305;28;19929;-61
2020/12/20 10:07:24;;;;;;;;;;;;;;;;;;5048259;28;20292;-61
2020/12/20 10:09:52;;;;;;;;;;;;;;;;;;5045688;28;20336;-62
2020/12/20 10:12:19;;;;;;;;;;;;;;;;;;5044501;28;19933;-69
2020/12/20 10:14:46;;;;;;;;;;;;;;;;;;5039124;28;19933;-70
2020/12/20 10:17:13;;;;;;;;;;;;;;;;;;5040275;28;19936;-66
2020/12/20 10:19:40;;;;;;;;;;;;;;;;;;5043350;28;20293;-67
2020/12/20 10:22:07;;;;;;;;;;;;;;;;;;5046437;28;20324;-67
2020/12/20 10:24:34;;;;;;;;;;;;;;;;;;5037909;28;20110;-66
2020/12/20 10:27:02;;;;;;;;;;;;;;;;;;5046208;28;19929;-67
2020/12/20 10:29:29;;;;;;;;;;;;;;;;;;5044841;28;19975;-65
2020/12/20 10:31:56;;;;;;;;;;;;;;;;;;5042250;28;19929;-62
2020/12/20 10:34:23;;;;;;;;;;;;;;;;;;5043335;28;19972;-65
2020/12/20 10:36:52;;;;;;;;;;;;;;;;;;5043095;28;20113;-66
2020/12/20 10:39:19;;;;;;;;;;;;;;;;;;5041855;28;20332;-67
2020/12/20 10:41:46;;;;;;;;;;;;;;;;;;5044398;28;20452;-71
2020/12/20 10:44:16;;;;;;;;;;;;;;;;;;5044368;28;20350;-68
2020/12/20 10:46:43;;;;;;;;;;;;;;;;;;5041196;28;19929;-64
2020/12/20 10:49:10;;;;;;;;;;;;;;;;;;5044324;28;19942;-64
2020/12/20 10:51:37;;;;;;;;;;;;;;;;;;5062683;28;19933;-68
2020/12/20 10:54:05;;;;;;;;;;;;;;;;;;5062031;28;20364;-65
2020/12/20 10:56:32;;;;;;;;;;;;;;;;;;5061912;28;20015;-72
2020/12/20 10:58:59;;;;;;;;;;;;;;;;;;5061934;28;20231;-64
2020/12/20 11:01:26;;;;;;;;;;;;;;;;;;5060683;28;20006;-69
2020/12/20 11:03:53;;;;;;;;;;;;;;;;;;5063643;28;20045;-71
2020/12/20 11:06:20;;;;;;;;;;;;;;;;;;5068762;28;19999;-74
2020/12/20 11:08:47;;;;;;;;;;;;;;;;;;5065442;28;19940;-62
2020/12/20 11:11:14;;;;;;;;;;;;;;;;;;5068593;28;19947;-65
2020/12/20 11:13:42;;;;;;;;;;;;;;;;;;5064759;28;19924;-62
2020/12/20 11:16:09;;;;;;;;;;;;;;;;;;5068073;28;20440;-65
2020/12/20 11:18:36;;;;;;;;;;;;;;;;;;5072290;28;20375;-63
2020/12/20 11:21:03;;;;;;;;;;;;;;;;;;5071089;28;20032;-63
2020/12/20 11:23:31;;;;;;;;;;;;;;;;;;5072405;28;20003;-61
2020/12/20 11:26:06;;;;;;;;;;;;;;;;;;5071560;28;20026;-63
2020/12/20 11:31:09;;;;;;;;;;;;;;;;;;5382958;22;20018;-88
2020/12/20 11:33:36;;;;;;;;;;;;;;;;;;5064074;28;19980;-88
2020/12/20 11:36:03;;;;;;;;;;;;;;;;;;5073428;28;19979;-88
2020/12/20 11:38:31;;;;;;;;;;;;;;;;;;5073804;28;20016;-88
2020/12/20 11:40:58;;;;;;;;;;;;;;;;;;5073390;28;19942;-88
2020/12/20 11:43:25;;;;;;;;;;;;;;;;;;5073976;28;19925;-88
2020/12/20 11:45:52;;;;;;;;;;;;;;;;;;5077385;28;19925;-88
2020/12/20 11:48:19;;;;;;;;;;;;;;;;;;5071194;28;19940;-89
2020/12/20 11:50:47;;;;;;;;;;;;;;;;;;5076409;28;19924;-88
2020/12/20 11:53:14;;;;;;;;;;;;;;;;;;5061714;28;19978;-87
2020/12/20 11:55:42;;;;;;;;;;;;;;;;;;5077781;28;20425;-88
2020/12/20 11:58:12;;;;;;;;;;;;;;;;;;5077127;28;20369;-87
2020/12/20 12:00:40;;;;;;;;;;;;;;;;;;5076365;28;20002;-88
2020/12/20 12:03:08;;;;;;;;;;;;;;;;;;5073896;28;19943;-85
2020/12/20 12:05:36;;;;;;;;;;;;;;;;;;5075285;28;19974;-85
2020/12/20 12:08:06;;;;;;;;;;;;;;;;;;5076039;28;19932;-85
2020/12/20 12:10:33;;;;;;;;;;;;;;;;;;5071166;28;19934;-85
2020/12/20 12:13:01;;;;;;;;;;;;;;;;;;5076157;28;20389;-85
2020/12/20 12:15:28;;;;;;;;;;;;;;;;;;5075579;28;19925;-85
2020/12/20 12:17:56;;;;;;;;;;;;;;;;;;5069369;28;20264;-85
2020/12/20 12:20:23;;;;;;;;;;;;;;;;;;5076313;28;19925;-85
2020/12/20 12:22:54;;;;;;;;;;;;;;;;;;5076893;28;20325;-85
2020/12/20 12:25:21;;;;;;;;;;;;;;;;;;5076068;28;19929;-85
2020/12/20 12:27:49;;;;;;;;;;;;;;;;;;5065888;28;20007;-86
2020/12/20 12:30:16;;;;;;;;;;;;;;;;;;5061070;28;19947;-86
2020/12/20 12:32:44;;;;;;;;;;;;;;;;;;5064004;28;19935;-85
2020/12/20 12:35:11;;;;;;;;;;;;;;;;;;5056995;28;20451;-87
2020/12/20 12:37:39;;;;;;;;;;;;;;;;;;5047881;28;20393;-86
2020/12/20 12:40:06;;;;;;;;;;;;;;;;;;5049533;28;19925;-86
2020/12/20 12:42:33;;;;;;;;;;;;;;;;;;5053218;28;19929;-86
2020/12/20 12:45:00;;;;;;;;;;;;;;;;;;5054656;28;19982;-86
2020/12/20 12:47:28;;;;;;;;;;;;;;;;;;5050349;28;19929;-86
2020/12/20 12:49:55;;;;;;;;;;;;;;;;;;5050625;28;20146;-86
2020/12/20 12:52:23;;;;;;;;;;;;;;;;;;5048446;28;19932;-87
2020/12/20 12:54:50;;;;;;;;;;;;;;;;;;5048483;28;19988;-87
2020/12/20 12:57:18;;;;;;;;;;;;;;;;;;5059762;28;19935;-86
2020/12/20 12:59:47;;;;;;;;;;;;;;;;;;5053301;28;19986;-88
2020/12/20 13:02:14;;;;;;;;;;;;;;;;;;5054558;28;19929;-86
2020/12/20 13:04:42;;;;;;;;;;;;;;;;;;5054497;28;19932;-86
2020/12/20 13:07:09;;;;;;;;;;;;;;;;;;5050346;28;19987;-85
2020/12/20 13:09:37;;;;;;;;;;;;;;;;;;5042883;28;19925;-85
2020/12/20 13:12:05;;;;;;;;;;;;;;;;;;5051950;28;20344;-87
2020/12/20 13:14:32;;;;;;;;;;;;;;;;;;5051304;28;20350;-85
2020/12/20 13:16:59;;;;;;;;;;;;;;;;;;5047219;28;19933;-86
2020/12/20 13:19:29;;;;;;;;;;;;;;;;;;5052572;28;20442;-84
2020/12/20 13:21:58;;;;;;;;;;;;;;;;;;5053774;28;19931;-85
2020/12/20 13:24:26;;;;;;;;;;;;;;;;;;5047163;28;19925;-85
2020/12/20 13:27:07;;;;;;;;;;;;;;;;;;5056275;28;19935;-85
2020/12/20 13:29:37;;;;;;;;;;;;;;;;;;5055568;28;20399;-84
2020/12/20 13:32:11;;;;;;;;;;;;;;;;;;5048226;28;19931;-85
2020/12/20 13:34:40;;;;;;;;;;;;;;;;;;5045553;28;20419;-85
2020/12/20 13:37:07;;;;;;;;;;;;;;;;;;5051534;28;20356;-85
2020/12/20 13:39:34;;;;;;;;;;;;;;;;;;5051848;28;19929;-84
2020/12/20 13:42:01;;;;;;;;;;;;;;;;;;5051280;28;20281;-85
2020/12/20 13:44:28;;;;;;;;;;;;;;;;;;5045602;28;20015;-85
2020/12/20 13:46:55;;;;;;;;;;;;;;;;;;5050944;28;19950;-85
2020/12/20 13:49:23;;;;;;;;;;;;;;;;;;5043990;28;20352;-85
2020/12/20 13:51:56;;;;;;;;;;;;;;;;;;5052884;28;19936;-87
2020/12/20 13:54:27;;;;;;;;;;;;;;;;;;5054545;28;20318;-86
2020/12/20 13:56:54;;;;;;;;;;;;;;;;;;5059963;28;20421;-87
2020/12/20 13:59:22;;;;;;;;;;;;;;;;;;5051711;28;19998;-86
2020/12/20 14:01:49;;;;;;;;;;;;;;;;;;5061771;28;19939;-86
2020/12/20 14:04:16;;;;;;;;;;;;;;;;;;5052697;28;19928;-86
2020/12/20 14:06:46;;;;;;;;;;;;;;;;;;5057368;28;19975;-86
2020/12/20 14:09:13;;;;;;;;;;;;;;;;;;5062327;28;20458;-86
2020/12/20 14:11:51;;;;;;;;;;;;;;;;;;5063684;28;19932;-87
2020/12/20 14:17:41;;;;;;;;;;;;;;;;;;5002262;28;20016;-86
2020/12/20 14:20:12;;;;;;;;;;;;;;;;;;5044357;28;20373;-87
2020/12/20 14:22:42;;;;;;;;;;;;;;;;;;5054178;28;19996;-87
2020/12/20 14:25:11;;;;;;;;;;;;;;;;;;5053458;28;19962;-87
2020/12/20 14:27:42;;;;;;;;;;;;;;;;;;5047938;28;19990;-88
2020/12/20 14:30:09;;;;;;;;;;;;;;;;;;5051962;28;19932;-87
2020/12/20 14:32:38;;;;;;;;;;;;;;;;;;5051788;28;19925;-88
2020/12/20 14:35:05;;;;;;;;;;;;;;;;;;5044460;28;19971;-88
2020/12/20 14:37:32;;;;;;;;;;;;;;;;;;5051351;28;19929;-89
2020/12/20 14:40:05;;;;;;;;;;;;;;;;;;5056112;28;19924;-88
2020/12/20 14:42:36;;;;;;;;;;;;;;;;;;5045646;28;19929;-88
2020/12/20 14:45:04;;;;;;;;;;;;;;;;;;5049101;28;19935;-88
2020/12/20 14:47:31;;;;;;;;;;;;;;;;;;5052530;28;20023;-89
2020/12/20 14:49:59;;;;;;;;;;;;;;;;;;5053369;28;19982;-88
2020/12/20 14:52:26;;;;;;;;;;;;;;;;;;5052207;28;20366;-87
2020/12/20 14:54:53;;;;;;;;;;;;;;;;;;5053283;28;19928;-88
2020/12/20 14:57:21;;;;;;;;;;;;;;;;;;5059802;28;19928;-88
2020/12/20 14:59:49;;;;;;;;;;;;;;;;;;5052006;28;19925;-88
2020/12/20 15:02:16;;;;;;;;;;;;;;;;;;5052997;28;19925;-88
2020/12/20 15:04:43;;;;;;;;;;;;;;;;;;5057233;28;20269;-88
2020/12/20 15:07:11;;;;;;;;;;;;;;;;;;5050991;28;20540;-88
2020/12/20 15:09:41;;;;;;;;;;;;;;;;;;5060967;28;19924;-86
2020/12/20 15:12:09;;;;;;;;;;;;;;;;;;5059269;28;19971;-87
2020/12/20 15:14:39;;;;;;;;;;;;;;;;;;5064202;28;20475;-86
2020/12/20 15:17:14;;;;;;;;;;;;;;;;;;5060996;28;19986;-87
2020/12/20 15:19:45;;;;;;;;;;;;;;;;;;5055609;28;20088;-88
2020/12/20 15:22:16;;;;;;;;;;;;;;;;;;5051803;28;20029;-88
2020/12/20 15:24:52;;;;;;;;;;;;;;;;;;5050962;28;19929;-87
2020/12/20 15:27:21;;;;;;;;;;;;;;;;;;5064641;28;20415;-88
2020/12/20 15:29:49;;;;;;;;;;;;;;;;;;5055579;28;19959;-87
2020/12/20 15:32:16;;;;;;;;;;;;;;;;;;5054278;28;20027;-87
2020/12/20 15:34:45;;;;;;;;;;;;;;;;;;5059476;28;19974;-87
2020/12/20 15:37:22;;;;;;;;;;;;;;;;;;5050677;28;20291;-88
2020/12/20 15:39:49;;;;;;;;;;;;;;;;;;5049702;28;19925;-87
2020/12/20 15:42:17;;;;;;;;;;;;;;;;;;5050426;28;19929;-87
2020/12/20 15:44:46;;;;;;;;;;;;;;;;;;5050985;28;19936;-87
2020/12/20 15:47:13;;;;;;;;;;;;;;;;;;5046968;28;19929;-88
2020/12/20 15:49:40;;;;;;;;;;;;;;;;;;5050504;28;19933;-88
2020/12/20 15:52:08;;;;;;;;;;;;;;;;;;5049224;28;19983;-88
2020/12/20 15:54:35;;;;;;;;;;;;;;;;;;5050107;28;20425;-88
2020/12/20 15:57:03;;;;;;;;;;;;;;;;;;5050011;28;20007;-88
2020/12/20 15:59:30;;;;;;;;;;;;;;;;;;5041668;28;20055;-88
2020/12/20 16:01:57;;;;;;;;;;;;;;;;;;5048349;28;19995;-87
2020/12/20 16:04:24;;;;;;;;;;;;;;;;;;5055485;28;20296;-86
2020/12/20 16:06:52;;;;;;;;;;;;;;;;;;5050649;28;19928;-87
2020/12/20 16:09:21;;;;;;;;;;;;;;;;;;5044578;28;19984;-86
2020/12/20 16:11:48;;;;;;;;;;;;;;;;;;5051389;28;19929;-86
2020/12/20 16:14:16;;;;;;;;;;;;;;;;;;5052739;28;19928;-86
2020/12/20 16:16:43;;;;;;;;;;;;;;;;;;5054302;28;20245;-86
2020/12/20 16:19:23;;;;;;;;;;;;;;;;;;5049331;28;19929;-86
2020/12/20 16:21:50;;;;;;;;;;;;;;;;;;5045976;28;19929;-87
2020/12/20 16:24:25;;;;;;;;;;;;;;;;;;5046064;28;20015;-86
2020/12/20 16:26:52;;;;;;;;;;;;;;;;;;5041603;28;19968;-86
2020/12/20 16:29:20;;;;;;;;;;;;;;;;;;5052830;28;19967;-87
2020/12/20 16:31:47;;;;;;;;;;;;;;;;;;5053452;28;19956;-86
2020/12/20 16:34:14;;;;;;;;;;;;;;;;;;5053262;28;19928;-86
2020/12/20 16:36:42;;;;;;;;;;;;;;;;;;5053655;28;20419;-86
2020/12/20 16:39:09;;;;;;;;;;;;;;;;;;5052209;28;19935;-87
2020/12/20 16:41:36;;;;;;;;;;;;;;;;;;5050833;28;19925;-87
2020/12/20 16:44:04;;;;;;;;;;;;;;;;;;5052575;28;20015;-87
2020/12/20 16:46:31;;;;;;;;;;;;;;;;;;5053366;28;20065;-87
2020/12/20 16:48:58;;;;;;;;;;;;;;;;;;5052385;28;19924;-87
2020/12/20 16:51:26;;;;;;;;;;;;;;;;;;5039410;28;19971;-87
2020/12/20 16:53:53;;;;;;;;;;;;;;;;;;5041397;28;20023;-88